sensor_id;sensor_type;location;lat;lon;timestamp;P1;durP1;ratioP1;P2;durP2;ratioP2
5876;SDS011;2964;42.144;24.730;2022-12-18T00:01:23;89.67;;;49.10;;
5876;SDS011;2964;42.144;24.730;2022-12-18T00:03:52;87.57;;;47.90;;
5876;SDS011;2964;42.144;24.730;2022-12-18T00:06:20;94.23;;;50.60;;
5876;SDS011;2964;42.144;24.730;2022-12-18T00:08:48;90.97;;;49.17;;
5876;SDS011;2964;42.144;24.730;2022-12-18T00:11:17;93.57;;;50.77;;
5876;SDS011;2964;42.144;24.730;2022-12-18T00:13:46;96.27;;;50.60;;
5876;SDS011;2964;42.144;24.730;2022-12-18T00:16:14;90.47;;;49.47;;
5876;SDS011;2964;42.144;24.730;2022-12-18T00:18:43;113.67;;;50.83;;
5876;SDS011;2964;42.144;24.730;2022-12-18T00:21:10;88.40;;;48.73;;
5876;SDS011;2964;42.144;24.730;2022-12-18T00:23:38;88.80;;;47.70;;
5876;SDS011;2964;42.144;24.730;2022-12-18T00:26:07;103.67;;;50.83;;
5876;SDS011;2964;42.144;24.730;2022-12-18T00:28:41;85.50;;;47.47;;
5876;SDS011;2964;42.144;24.730;2022-12-18T00:31:09;96.20;;;46.57;;
5876;SDS011;2964;42.144;24.730;2022-12-18T00:33:37;82.57;;;48.13;;
5876;SDS011;2964;42.144;24.730;2022-12-18T00:36:05;82.43;;;45.70;;
5876;SDS011;2964;42.144;24.730;2022-12-18T00:38:33;86.67;;;48.03;;
5876;SDS011;2964;42.144;24.730;2022-12-18T00:41:00;94.53;;;48.93;;
5876;SDS011;2964;42.144;24.730;2022-12-18T00:43:27;92.57;;;48.30;;
5876;SDS011;2964;42.144;24.730;2022-12-18T00:45:54;86.77;;;48.60;;
5876;SDS011;2964;42.144;24.730;2022-12-18T00:48:20;88.03;;;46.93;;
5876;SDS011;2964;42.144;24.730;2022-12-18T00:50:47;81.90;;;46.17;;
5876;SDS011;2964;42.144;24.730;2022-12-18T00:53:15;89.27;;;49.43;;
5876;SDS011;2964;42.144;24.730;2022-12-18T00:55:42;93.30;;;50.23;;
5876;SDS011;2964;42.144;24.730;2022-12-18T00:58:10;75.83;;;46.80;;
5876;SDS011;2964;42.144;24.730;2022-12-18T01:00:37;72.23;;;45.33;;
5876;SDS011;2964;42.144;24.730;2022-12-18T01:03:05;68.53;;;41.57;;
5876;SDS011;2964;42.144;24.730;2022-12-18T01:05:32;71.87;;;42.77;;
5876;SDS011;2964;42.144;24.730;2022-12-18T01:07:59;71.40;;;43.53;;
5876;SDS011;2964;42.144;24.730;2022-12-18T01:10:26;70.63;;;41.40;;
5876;SDS011;2964;42.144;24.730;2022-12-18T01:12:52;65.83;;;40.87;;
5876;SDS011;2964;42.144;24.730;2022-12-18T01:15:19;74.13;;;42.13;;
5876;SDS011;2964;42.144;24.730;2022-12-18T01:17:46;70.27;;;41.93;;
5876;SDS011;2964;42.144;24.730;2022-12-18T01:20:14;78.63;;;47.57;;
5876;SDS011;2964;42.144;24.730;2022-12-18T01:22:41;76.60;;;45.07;;
5876;SDS011;2964;42.144;24.730;2022-12-18T01:25:08;84.97;;;48.17;;
5876;SDS011;2964;42.144;24.730;2022-12-18T01:27:34;100.87;;;52.30;;
5876;SDS011;2964;42.144;24.730;2022-12-18T01:30:01;93.07;;;50.67;;
5876;SDS011;2964;42.144;24.730;2022-12-18T01:32:29;94.77;;;49.37;;
5876;SDS011;2964;42.144;24.730;2022-12-18T01:34:56;97.10;;;50.10;;
5876;SDS011;2964;42.144;24.730;2022-12-18T01:37:24;99.57;;;49.40;;
5876;SDS011;2964;42.144;24.730;2022-12-18T01:39:51;92.33;;;50.13;;
5876;SDS011;2964;42.144;24.730;2022-12-18T01:42:19;79.00;;;46.53;;
5876;SDS011;2964;42.144;24.730;2022-12-18T01:44:57;81.93;;;45.90;;
5876;SDS011;2964;42.144;24.730;2022-12-18T01:47:27;103.73;;;50.83;;
5876;SDS011;2964;42.144;24.730;2022-12-18T01:49:58;79.77;;;46.23;;
5876;SDS011;2964;42.144;24.730;2022-12-18T01:52:29;85.93;;;47.10;;
5876;SDS011;2964;42.144;24.730;2022-12-18T01:54:58;92.30;;;47.07;;
5876;SDS011;2964;42.144;24.730;2022-12-18T01:57:26;91.27;;;48.13;;
5876;SDS011;2964;42.144;24.730;2022-12-18T01:59:56;89.20;;;49.13;;
5876;SDS011;2964;42.144;24.730;2022-12-18T02:02:26;101.30;;;48.47;;
5876;SDS011;2964;42.144;24.730;2022-12-18T02:04:54;101.80;;;49.90;;
5876;SDS011;2964;42.144;24.730;2022-12-18T02:07:23;83.77;;;47.30;;
5876;SDS011;2964;42.144;24.730;2022-12-18T02:09:58;80.30;;;44.13;;
5876;SDS011;2964;42.144;24.730;2022-12-18T02:12:30;68.27;;;42.37;;
5876;SDS011;2964;42.144;24.730;2022-12-18T02:15:07;64.70;;;39.47;;
5876;SDS011;2964;42.144;24.730;2022-12-18T02:17:42;67.13;;;39.03;;
5876;SDS011;2964;42.144;24.730;2022-12-18T02:20:13;62.70;;;36.83;;
5876;SDS011;2964;42.144;24.730;2022-12-18T02:22:46;53.93;;;35.07;;
5876;SDS011;2964;42.144;24.730;2022-12-18T02:25:32;54.40;;;34.37;;
5876;SDS011;2964;42.144;24.730;2022-12-18T02:28:13;54.63;;;32.27;;
5876;SDS011;2964;42.144;24.730;2022-12-18T02:30:42;51.17;;;33.63;;
5876;SDS011;2964;42.144;24.730;2022-12-18T02:33:13;52.07;;;33.40;;
5876;SDS011;2964;42.144;24.730;2022-12-18T02:35:41;51.10;;;33.17;;
5876;SDS011;2964;42.144;24.730;2022-12-18T02:38:11;54.37;;;33.53;;
5876;SDS011;2964;42.144;24.730;2022-12-18T02:40:39;58.83;;;34.27;;
5876;SDS011;2964;42.144;24.730;2022-12-18T02:43:08;52.13;;;32.17;;
5876;SDS011;2964;42.144;24.730;2022-12-18T02:45:45;51.40;;;31.97;;
5876;SDS011;2964;42.144;24.730;2022-12-18T02:48:13;50.57;;;32.53;;
5876;SDS011;2964;42.144;24.730;2022-12-18T02:50:41;58.87;;;31.83;;
5876;SDS011;2964;42.144;24.730;2022-12-18T02:53:15;49.43;;;31.00;;
5876;SDS011;2964;42.144;24.730;2022-12-18T02:55:53;48.53;;;30.67;;
5876;SDS011;2964;42.144;24.730;2022-12-18T02:58:29;45.53;;;28.13;;
5876;SDS011;2964;42.144;24.730;2022-12-18T03:01:03;38.80;;;26.53;;
5876;SDS011;2964;42.144;24.730;2022-12-18T03:03:37;39.43;;;26.83;;
5876;SDS011;2964;42.144;24.730;2022-12-18T03:06:08;36.80;;;26.30;;
5876;SDS011;2964;42.144;24.730;2022-12-18T03:08:41;51.33;;;29.07;;
5876;SDS011;2964;42.144;24.730;2022-12-18T03:11:11;48.47;;;27.93;;
5876;SDS011;2964;42.144;24.730;2022-12-18T03:13:40;48.60;;;26.17;;
5876;SDS011;2964;42.144;24.730;2022-12-18T03:16:14;46.63;;;27.50;;
5876;SDS011;2964;42.144;24.730;2022-12-18T03:18:45;42.77;;;26.97;;
5876;SDS011;2964;42.144;24.730;2022-12-18T03:21:16;48.03;;;28.37;;
5876;SDS011;2964;42.144;24.730;2022-12-18T03:23:49;45.30;;;28.40;;
5876;SDS011;2964;42.144;24.730;2022-12-18T03:26:19;50.47;;;28.33;;
5876;SDS011;2964;42.144;24.730;2022-12-18T03:28:49;44.13;;;27.40;;
5876;SDS011;2964;42.144;24.730;2022-12-18T03:31:21;42.50;;;26.80;;
5876;SDS011;2964;42.144;24.730;2022-12-18T03:33:51;41.17;;;26.90;;
5876;SDS011;2964;42.144;24.730;2022-12-18T03:36:19;46.33;;;26.43;;
5876;SDS011;2964;42.144;24.730;2022-12-18T03:38:46;41.37;;;26.40;;
5876;SDS011;2964;42.144;24.730;2022-12-18T03:41:15;39.73;;;26.37;;
5876;SDS011;2964;42.144;24.730;2022-12-18T03:43:49;35.13;;;24.03;;
5876;SDS011;2964;42.144;24.730;2022-12-18T03:46:24;34.33;;;24.57;;
5876;SDS011;2964;42.144;24.730;2022-12-18T03:48:56;31.37;;;22.13;;
5876;SDS011;2964;42.144;24.730;2022-12-18T03:51:28;33.17;;;21.87;;
5876;SDS011;2964;42.144;24.730;2022-12-18T03:54:03;32.37;;;23.07;;
5876;SDS011;2964;42.144;24.730;2022-12-18T03:56:33;38.40;;;22.10;;
5876;SDS011;2964;42.144;24.730;2022-12-18T03:59:04;32.23;;;23.27;;
5876;SDS011;2964;42.144;24.730;2022-12-18T04:01:35;30.20;;;23.53;;
5876;SDS011;2964;42.144;24.730;2022-12-18T04:04:05;30.47;;;22.47;;
5876;SDS011;2964;42.144;24.730;2022-12-18T04:06:34;31.23;;;20.83;;
5876;SDS011;2964;42.144;24.730;2022-12-18T04:09:02;32.77;;;22.03;;
5876;SDS011;2964;42.144;24.730;2022-12-18T04:11:30;32.67;;;22.53;;
5876;SDS011;2964;42.144;24.730;2022-12-18T04:13:57;30.40;;;21.93;;
5876;SDS011;2964;42.144;24.730;2022-12-18T04:16:24;35.27;;;21.90;;
5876;SDS011;2964;42.144;24.730;2022-12-18T04:18:52;26.87;;;20.47;;
5876;SDS011;2964;42.144;24.730;2022-12-18T04:21:19;31.47;;;21.13;;
5876;SDS011;2964;42.144;24.730;2022-12-18T04:23:47;30.80;;;21.50;;
5876;SDS011;2964;42.144;24.730;2022-12-18T04:26:14;28.93;;;20.93;;
5876;SDS011;2964;42.144;24.730;2022-12-18T04:28:41;26.63;;;19.23;;
5876;SDS011;2964;42.144;24.730;2022-12-18T04:31:07;27.00;;;20.47;;
5876;SDS011;2964;42.144;24.730;2022-12-18T04:33:34;26.90;;;17.23;;
5876;SDS011;2964;42.144;24.730;2022-12-18T04:36:02;26.63;;;19.03;;
5876;SDS011;2964;42.144;24.730;2022-12-18T04:38:29;25.50;;;17.13;;
5876;SDS011;2964;42.144;24.730;2022-12-18T04:40:56;26.07;;;17.17;;
5876;SDS011;2964;42.144;24.730;2022-12-18T04:43:22;21.03;;;16.07;;
5876;SDS011;2964;42.144;24.730;2022-12-18T04:45:49;18.60;;;15.53;;
5876;SDS011;2964;42.144;24.730;2022-12-18T04:48:16;21.43;;;15.10;;
5876;SDS011;2964;42.144;24.730;2022-12-18T04:50:42;19.43;;;13.77;;
5876;SDS011;2964;42.144;24.730;2022-12-18T04:53:10;16.40;;;14.00;;
5876;SDS011;2964;42.144;24.730;2022-12-18T04:55:37;17.17;;;14.40;;
5876;SDS011;2964;42.144;24.730;2022-12-18T04:58:03;15.60;;;13.50;;
5876;SDS011;2964;42.144;24.730;2022-12-18T05:00:30;15.37;;;12.90;;
5876;SDS011;2964;42.144;24.730;2022-12-18T05:02:57;14.63;;;13.20;;
5876;SDS011;2964;42.144;24.730;2022-12-18T05:05:23;14.17;;;11.57;;
5876;SDS011;2964;42.144;24.730;2022-12-18T05:07:50;13.13;;;11.83;;
5876;SDS011;2964;42.144;24.730;2022-12-18T05:10:18;12.47;;;11.23;;
5876;SDS011;2964;42.144;24.730;2022-12-18T05:12:45;12.43;;;11.13;;
5876;SDS011;2964;42.144;24.730;2022-12-18T05:15:27;12.87;;;11.57;;
5876;SDS011;2964;42.144;24.730;2022-12-18T05:17:55;11.60;;;10.53;;
5876;SDS011;2964;42.144;24.730;2022-12-18T05:20:22;11.43;;;10.43;;
5876;SDS011;2964;42.144;24.730;2022-12-18T05:22:49;10.87;;;9.90;;
5876;SDS011;2964;42.144;24.730;2022-12-18T05:25:16;11.43;;;10.33;;
5876;SDS011;2964;42.144;24.730;2022-12-18T05:27:45;10.90;;;9.90;;
5876;SDS011;2964;42.144;24.730;2022-12-18T05:30:12;11.60;;;10.60;;
5876;SDS011;2964;42.144;24.730;2022-12-18T05:32:39;11.70;;;10.60;;
5876;SDS011;2964;42.144;24.730;2022-12-18T05:35:07;12.40;;;11.23;;
5876;SDS011;2964;42.144;24.730;2022-12-18T05:37:35;11.73;;;10.73;;
5876;SDS011;2964;42.144;24.730;2022-12-18T05:40:02;12.00;;;10.90;;
5876;SDS011;2964;42.144;24.730;2022-12-18T05:42:30;13.80;;;10.90;;
5876;SDS011;2964;42.144;24.730;2022-12-18T05:44:58;12.23;;;11.10;;
5876;SDS011;2964;42.144;24.730;2022-12-18T05:47:24;11.57;;;10.53;;
5876;SDS011;2964;42.144;24.730;2022-12-18T05:49:52;14.47;;;10.50;;
5876;SDS011;2964;42.144;24.730;2022-12-18T05:52:19;11.50;;;10.30;;
5876;SDS011;2964;42.144;24.730;2022-12-18T05:54:45;11.40;;;10.40;;
5876;SDS011;2964;42.144;24.730;2022-12-18T05:57:12;12.07;;;11.03;;
5876;SDS011;2964;42.144;24.730;2022-12-18T05:59:39;11.17;;;10.10;;
5876;SDS011;2964;42.144;24.730;2022-12-18T06:02:07;10.03;;;9.33;;
5876;SDS011;2964;42.144;24.730;2022-12-18T06:04:33;9.30;;;8.40;;
5876;SDS011;2964;42.144;24.730;2022-12-18T06:07:00;10.87;;;9.97;;
5876;SDS011;2964;42.144;24.730;2022-12-18T06:09:29;10.43;;;9.27;;
5876;SDS011;2964;42.144;24.730;2022-12-18T06:11:57;11.40;;;10.30;;
5876;SDS011;2964;42.144;24.730;2022-12-18T06:14:23;11.13;;;9.33;;
5876;SDS011;2964;42.144;24.730;2022-12-18T06:16:50;9.70;;;9.00;;
5876;SDS011;2964;42.144;24.730;2022-12-18T06:19:18;10.40;;;9.50;;
5876;SDS011;2964;42.144;24.730;2022-12-18T06:21:45;9.23;;;8.43;;
5876;SDS011;2964;42.144;24.730;2022-12-18T06:24:12;9.77;;;8.87;;
5876;SDS011;2964;42.144;24.730;2022-12-18T06:26:38;9.63;;;8.73;;
5876;SDS011;2964;42.144;24.730;2022-12-18T06:29:05;9.17;;;8.40;;
5876;SDS011;2964;42.144;24.730;2022-12-18T06:31:32;8.67;;;7.93;;
5876;SDS011;2964;42.144;24.730;2022-12-18T06:33:59;9.27;;;8.57;;
5876;SDS011;2964;42.144;24.730;2022-12-18T06:36:30;8.73;;;8.03;;
5876;SDS011;2964;42.144;24.730;2022-12-18T06:38:57;8.73;;;8.03;;
5876;SDS011;2964;42.144;24.730;2022-12-18T06:41:24;8.70;;;8.00;;
5876;SDS011;2964;42.144;24.730;2022-12-18T06:43:51;8.77;;;7.97;;
5876;SDS011;2964;42.144;24.730;2022-12-18T06:46:18;8.87;;;8.17;;
5876;SDS011;2964;42.144;24.730;2022-12-18T06:48:46;8.87;;;8.27;;
5876;SDS011;2964;42.144;24.730;2022-12-18T06:51:15;8.50;;;7.80;;
5876;SDS011;2964;42.144;24.730;2022-12-18T06:53:44;9.37;;;8.67;;
5876;SDS011;2964;42.144;24.730;2022-12-18T06:56:11;8.00;;;7.20;;
5876;SDS011;2964;42.144;24.730;2022-12-18T06:58:38;9.50;;;8.60;;
5876;SDS011;2964;42.144;24.730;2022-12-18T07:01:06;9.27;;;8.47;;
5876;SDS011;2964;42.144;24.730;2022-12-18T07:03:34;8.47;;;7.67;;
5876;SDS011;2964;42.144;24.730;2022-12-18T07:06:02;9.40;;;8.60;;
5876;SDS011;2964;42.144;24.730;2022-12-18T07:08:30;9.37;;;8.37;;
5876;SDS011;2964;42.144;24.730;2022-12-18T07:10:58;8.90;;;8.10;;
5876;SDS011;2964;42.144;24.730;2022-12-18T07:13:25;10.00;;;9.03;;
5876;SDS011;2964;42.144;24.730;2022-12-18T07:15:52;9.93;;;8.80;;
5876;SDS011;2964;42.144;24.730;2022-12-18T07:18:18;9.87;;;9.03;;
5876;SDS011;2964;42.144;24.730;2022-12-18T07:20:45;10.07;;;9.07;;
5876;SDS011;2964;42.144;24.730;2022-12-18T07:23:12;10.40;;;8.50;;
5876;SDS011;2964;42.144;24.730;2022-12-18T07:25:38;14.60;;;9.30;;
5876;SDS011;2964;42.144;24.730;2022-12-18T07:28:07;9.63;;;8.77;;
5876;SDS011;2964;42.144;24.730;2022-12-18T07:31:08;9.27;;;8.50;;
5876;SDS011;2964;42.144;24.730;2022-12-18T07:33:39;10.60;;;9.60;;
5876;SDS011;2964;42.144;24.730;2022-12-18T07:36:07;10.40;;;9.50;;
5876;SDS011;2964;42.144;24.730;2022-12-18T07:38:36;10.33;;;9.40;;
5876;SDS011;2964;42.144;24.730;2022-12-18T07:41:03;10.17;;;9.27;;
5876;SDS011;2964;42.144;24.730;2022-12-18T07:43:33;9.50;;;8.77;;
5876;SDS011;2964;42.144;24.730;2022-12-18T07:46:00;9.90;;;9.03;;
5876;SDS011;2964;42.144;24.730;2022-12-18T07:48:27;10.73;;;9.07;;
5876;SDS011;2964;42.144;24.730;2022-12-18T07:50:57;9.73;;;8.93;;
5876;SDS011;2964;42.144;24.730;2022-12-18T07:53:24;10.73;;;9.70;;
5876;SDS011;2964;42.144;24.730;2022-12-18T07:55:54;9.50;;;8.57;;
5876;SDS011;2964;42.144;24.730;2022-12-18T07:58:21;9.43;;;8.63;;
5876;SDS011;2964;42.144;24.730;2022-12-18T08:00:49;11.00;;;8.47;;
5876;SDS011;2964;42.144;24.730;2022-12-18T08:03:17;9.83;;;9.03;;
5876;SDS011;2964;42.144;24.730;2022-12-18T08:05:43;9.67;;;8.80;;
5876;SDS011;2964;42.144;24.730;2022-12-18T08:08:10;9.33;;;8.63;;
5876;SDS011;2964;42.144;24.730;2022-12-18T08:10:37;10.33;;;9.27;;
5876;SDS011;2964;42.144;24.730;2022-12-18T08:13:04;9.57;;;8.80;;
5876;SDS011;2964;42.144;24.730;2022-12-18T08:15:31;9.53;;;8.63;;
5876;SDS011;2964;42.144;24.730;2022-12-18T08:17:59;10.30;;;9.40;;
5876;SDS011;2964;42.144;24.730;2022-12-18T08:20:26;10.33;;;9.47;;
5876;SDS011;2964;42.144;24.730;2022-12-18T08:22:53;9.80;;;8.80;;
5876;SDS011;2964;42.144;24.730;2022-12-18T08:25:20;10.40;;;9.43;;
5876;SDS011;2964;42.144;24.730;2022-12-18T08:27:46;9.93;;;9.10;;
5876;SDS011;2964;42.144;24.730;2022-12-18T08:30:13;12.37;;;11.47;;
5876;SDS011;2964;42.144;24.730;2022-12-18T08:32:40;11.17;;;9.47;;
5876;SDS011;2964;42.144;24.730;2022-12-18T08:35:08;12.03;;;9.37;;
5876;SDS011;2964;42.144;24.730;2022-12-18T08:37:36;9.90;;;9.00;;
5876;SDS011;2964;42.144;24.730;2022-12-18T08:40:07;14.20;;;8.77;;
5876;SDS011;2964;42.144;24.730;2022-12-18T08:42:35;12.03;;;8.83;;
5876;SDS011;2964;42.144;24.730;2022-12-18T08:45:19;9.83;;;9.03;;
5876;SDS011;2964;42.144;24.730;2022-12-18T08:47:47;10.73;;;9.77;;
5876;SDS011;2964;42.144;24.730;2022-12-18T08:50:15;10.80;;;9.80;;
5876;SDS011;2964;42.144;24.730;2022-12-18T08:52:42;10.20;;;9.20;;
5876;SDS011;2964;42.144;24.730;2022-12-18T08:55:10;11.43;;;10.33;;
5876;SDS011;2964;42.144;24.730;2022-12-18T08:57:36;10.80;;;9.77;;
5876;SDS011;2964;42.144;24.730;2022-12-18T09:00:03;10.87;;;9.67;;
5876;SDS011;2964;42.144;24.730;2022-12-18T09:02:31;11.00;;;9.00;;
5876;SDS011;2964;42.144;24.730;2022-12-18T09:04:57;11.03;;;10.03;;
5876;SDS011;2964;42.144;24.730;2022-12-18T09:07:25;10.47;;;9.53;;
5876;SDS011;2964;42.144;24.730;2022-12-18T09:09:52;9.53;;;8.83;;
5876;SDS011;2964;42.144;24.730;2022-12-18T09:12:19;8.97;;;8.10;;
5876;SDS011;2964;42.144;24.730;2022-12-18T09:14:46;9.37;;;8.40;;
5876;SDS011;2964;42.144;24.730;2022-12-18T09:17:12;9.73;;;8.83;;
5876;SDS011;2964;42.144;24.730;2022-12-18T09:19:39;10.17;;;9.30;;
5876;SDS011;2964;42.144;24.730;2022-12-18T09:22:06;9.60;;;8.90;;
5876;SDS011;2964;42.144;24.730;2022-12-18T09:24:34;10.80;;;9.77;;
5876;SDS011;2964;42.144;24.730;2022-12-18T09:27:00;11.10;;;10.10;;
5876;SDS011;2964;42.144;24.730;2022-12-18T09:29:27;10.70;;;9.23;;
5876;SDS011;2964;42.144;24.730;2022-12-18T09:31:54;11.27;;;10.37;;
5876;SDS011;2964;42.144;24.730;2022-12-18T09:34:21;10.13;;;9.33;;
5876;SDS011;2964;42.144;24.730;2022-12-18T09:36:48;11.00;;;10.00;;
5876;SDS011;2964;42.144;24.730;2022-12-18T09:39:16;10.97;;;10.00;;
5876;SDS011;2964;42.144;24.730;2022-12-18T09:41:45;10.70;;;9.90;;
5876;SDS011;2964;42.144;24.730;2022-12-18T09:44:22;11.90;;;10.27;;
5876;SDS011;2964;42.144;24.730;2022-12-18T09:46:53;10.63;;;9.67;;
5876;SDS011;2964;42.144;24.730;2022-12-18T09:49:25;12.13;;;10.50;;
5876;SDS011;2964;42.144;24.730;2022-12-18T09:51:56;10.07;;;9.27;;
5876;SDS011;2964;42.144;24.730;2022-12-18T09:54:26;11.80;;;9.53;;
5876;SDS011;2964;42.144;24.730;2022-12-18T09:57:00;10.70;;;9.70;;
5876;SDS011;2964;42.144;24.730;2022-12-18T09:59:29;10.97;;;9.87;;
5876;SDS011;2964;42.144;24.730;2022-12-18T10:01:58;10.33;;;9.43;;
5876;SDS011;2964;42.144;24.730;2022-12-18T10:04:32;9.80;;;8.90;;
5876;SDS011;2964;42.144;24.730;2022-12-18T10:07:00;10.13;;;9.30;;
5876;SDS011;2964;42.144;24.730;2022-12-18T10:09:33;12.57;;;9.30;;
5876;SDS011;2964;42.144;24.730;2022-12-18T10:12:09;10.83;;;9.93;;
5876;SDS011;2964;42.144;24.730;2022-12-18T10:14:43;13.30;;;9.80;;
5876;SDS011;2964;42.144;24.730;2022-12-18T10:17:19;11.40;;;10.27;;
5876;SDS011;2964;42.144;24.730;2022-12-18T10:19:53;12.70;;;11.00;;
5876;SDS011;2964;42.144;24.730;2022-12-18T10:22:30;11.40;;;10.23;;
5876;SDS011;2964;42.144;24.730;2022-12-18T10:25:13;11.20;;;9.93;;
5876;SDS011;2964;42.144;24.730;2022-12-18T10:27:46;10.53;;;9.63;;
5876;SDS011;2964;42.144;24.730;2022-12-18T10:30:15;11.10;;;9.97;;
5876;SDS011;2964;42.144;24.730;2022-12-18T10:32:43;10.60;;;9.60;;
5876;SDS011;2964;42.144;24.730;2022-12-18T10:35:12;10.90;;;9.90;;
5876;SDS011;2964;42.144;24.730;2022-12-18T10:37:58;11.10;;;9.83;;
5876;SDS011;2964;42.144;24.730;2022-12-18T10:40:26;10.67;;;9.77;;
5876;SDS011;2964;42.144;24.730;2022-12-18T10:43:04;10.93;;;9.87;;
5876;SDS011;2964;42.144;24.730;2022-12-18T10:45:36;17.20;;;11.97;;
5876;SDS011;2964;42.144;24.730;2022-12-18T10:48:03;11.90;;;10.67;;
5876;SDS011;2964;42.144;24.730;2022-12-18T10:50:31;12.87;;;11.53;;
5876;SDS011;2964;42.144;24.730;2022-12-18T10:53:00;11.67;;;9.67;;
5876;SDS011;2964;42.144;24.730;2022-12-18T10:55:31;10.87;;;9.87;;
5876;SDS011;2964;42.144;24.730;2022-12-18T11:01:04;11.40;;;10.30;;
5876;SDS011;2964;42.144;24.730;2022-12-18T11:03:34;11.23;;;10.23;;
5876;SDS011;2964;42.144;24.730;2022-12-18T11:06:04;11.10;;;9.93;;
5876;SDS011;2964;42.144;24.730;2022-12-18T11:08:33;11.93;;;10.83;;
5876;SDS011;2964;42.144;24.730;2022-12-18T11:11:00;11.07;;;9.93;;
5876;SDS011;2964;42.144;24.730;2022-12-18T11:13:29;11.67;;;10.53;;
5876;SDS011;2964;42.144;24.730;2022-12-18T11:15:56;11.93;;;10.83;;
5876;SDS011;2964;42.144;24.730;2022-12-18T11:18:25;11.47;;;10.27;;
5876;SDS011;2964;42.144;24.730;2022-12-18T11:20:54;11.00;;;10.10;;
5876;SDS011;2964;42.144;24.730;2022-12-18T11:23:23;11.97;;;10.80;;
5876;SDS011;2964;42.144;24.730;2022-12-18T11:25:51;13.37;;;12.17;;
5876;SDS011;2964;42.144;24.730;2022-12-18T11:28:25;12.67;;;11.57;;
5876;SDS011;2964;42.144;24.730;2022-12-18T11:31:09;12.70;;;11.40;;
5876;SDS011;2964;42.144;24.730;2022-12-18T11:33:43;11.90;;;10.70;;
5876;SDS011;2964;42.144;24.730;2022-12-18T11:36:15;12.10;;;10.97;;
5876;SDS011;2964;42.144;24.730;2022-12-18T11:38:43;10.37;;;9.67;;
5876;SDS011;2964;42.144;24.730;2022-12-18T11:41:14;12.07;;;10.83;;
5876;SDS011;2964;42.144;24.730;2022-12-18T11:43:50;13.43;;;12.13;;
5876;SDS011;2964;42.144;24.730;2022-12-18T11:46:23;12.63;;;11.33;;
5876;SDS011;2964;42.144;24.730;2022-12-18T11:48:58;12.63;;;11.37;;
5876;SDS011;2964;42.144;24.730;2022-12-18T11:51:35;13.30;;;12.07;;
5876;SDS011;2964;42.144;24.730;2022-12-18T11:54:09;12.17;;;10.90;;
5876;SDS011;2964;42.144;24.730;2022-12-18T11:56:41;12.77;;;11.47;;
5876;SDS011;2964;42.144;24.730;2022-12-18T11:59:15;12.70;;;11.60;;
5876;SDS011;2964;42.144;24.730;2022-12-18T12:01:54;12.70;;;11.50;;
5876;SDS011;2964;42.144;24.730;2022-12-18T12:04:56;11.23;;;10.23;;
5876;SDS011;2964;42.144;24.730;2022-12-18T12:07:34;11.27;;;10.37;;
5876;SDS011;2964;42.144;24.730;2022-12-18T12:10:11;10.50;;;9.60;;
5876;SDS011;2964;42.144;24.730;2022-12-18T12:12:53;11.43;;;10.47;;
5876;SDS011;2964;42.144;24.730;2022-12-18T12:15:31;11.20;;;10.10;;
5876;SDS011;2964;42.144;24.730;2022-12-18T12:18:07;12.57;;;11.23;;
5876;SDS011;2964;42.144;24.730;2022-12-18T12:20:43;18.37;;;10.90;;
5876;SDS011;2964;42.144;24.730;2022-12-18T12:23:25;12.53;;;11.33;;
5876;SDS011;2964;42.144;24.730;2022-12-18T12:26:01;12.40;;;11.20;;
5876;SDS011;2964;42.144;24.730;2022-12-18T12:28:36;12.40;;;10.83;;
5876;SDS011;2964;42.144;24.730;2022-12-18T12:31:21;14.20;;;11.47;;
5876;SDS011;2964;42.144;24.730;2022-12-18T12:34:00;13.27;;;11.93;;
5876;SDS011;2964;42.144;24.730;2022-12-18T12:36:38;13.40;;;12.17;;
5876;SDS011;2964;42.144;24.730;2022-12-18T12:39:14;12.07;;;10.83;;
5876;SDS011;2964;42.144;24.730;2022-12-18T12:41:45;12.93;;;11.73;;
5876;SDS011;2964;42.144;24.730;2022-12-18T12:44:30;12.00;;;10.90;;
5876;SDS011;2964;42.144;24.730;2022-12-18T12:47:11;12.47;;;11.20;;
5876;SDS011;2964;42.144;24.730;2022-12-18T12:49:44;11.83;;;10.73;;
5876;SDS011;2964;42.144;24.730;2022-12-18T12:52:14;10.50;;;9.57;;
5876;SDS011;2964;42.144;24.730;2022-12-18T12:54:44;11.23;;;10.27;;
5876;SDS011;2964;42.144;24.730;2022-12-18T12:57:12;20.90;;;10.50;;
5876;SDS011;2964;42.144;24.730;2022-12-18T12:59:50;11.70;;;10.40;;
5876;SDS011;2964;42.144;24.730;2022-12-18T13:02:28;11.27;;;10.20;;
5876;SDS011;2964;42.144;24.730;2022-12-18T13:05:03;13.93;;;11.10;;
5876;SDS011;2964;42.144;24.730;2022-12-18T13:07:39;13.03;;;11.40;;
5876;SDS011;2964;42.144;24.730;2022-12-18T13:12:59;12.83;;;11.60;;
5876;SDS011;2964;42.144;24.730;2022-12-18T13:15:29;12.67;;;11.10;;
5876;SDS011;2964;42.144;24.730;2022-12-18T13:18:16;13.43;;;12.17;;
5876;SDS011;2964;42.144;24.730;2022-12-18T13:20:45;15.00;;;12.87;;
5876;SDS011;2964;42.144;24.730;2022-12-18T13:29:00;16.57;;;13.67;;
5876;SDS011;2964;42.144;24.730;2022-12-18T13:34:30;16.47;;;13.87;;
5876;SDS011;2964;42.144;24.730;2022-12-18T13:36:57;14.73;;;12.40;;
5876;SDS011;2964;42.144;24.730;2022-12-18T13:43:27;14.17;;;12.57;;
5876;SDS011;2964;42.144;24.730;2022-12-18T13:46:05;18.37;;;13.90;;
5876;SDS011;2964;42.144;24.730;2022-12-18T13:48:48;15.70;;;13.97;;
5876;SDS011;2964;42.144;24.730;2022-12-18T13:51:22;15.70;;;13.50;;
5876;SDS011;2964;42.144;24.730;2022-12-18T13:53:50;17.43;;;13.23;;
5876;SDS011;2964;42.144;24.730;2022-12-18T13:56:22;15.27;;;13.77;;
5876;SDS011;2964;42.144;24.730;2022-12-18T13:59:11;18.07;;;14.50;;
5876;SDS011;2964;42.144;24.730;2022-12-18T14:01:44;19.27;;;13.63;;
5876;SDS011;2964;42.144;24.730;2022-12-18T14:04:12;16.73;;;13.47;;
5876;SDS011;2964;42.144;24.730;2022-12-18T14:06:47;19.23;;;14.87;;
5876;SDS011;2964;42.144;24.730;2022-12-18T14:09:19;17.77;;;13.63;;
5876;SDS011;2964;42.144;24.730;2022-12-18T14:11:49;21.00;;;14.30;;
5876;SDS011;2964;42.144;24.730;2022-12-18T14:14:18;18.47;;;14.93;;
5876;SDS011;2964;42.144;24.730;2022-12-18T14:16:45;20.83;;;15.40;;
5876;SDS011;2964;42.144;24.730;2022-12-18T14:19:14;20.03;;;15.13;;
5876;SDS011;2964;42.144;24.730;2022-12-18T14:21:45;16.97;;;14.27;;
5876;SDS011;2964;42.144;24.730;2022-12-18T14:24:15;22.47;;;13.93;;
5876;SDS011;2964;42.144;24.730;2022-12-18T14:26:43;14.47;;;12.97;;
5876;SDS011;2964;42.144;24.730;2022-12-18T14:29:21;14.80;;;13.10;;
5876;SDS011;2964;42.144;24.730;2022-12-18T14:32:10;13.77;;;12.43;;
5876;SDS011;2964;42.144;24.730;2022-12-18T14:34:39;15.97;;;13.27;;
5876;SDS011;2964;42.144;24.730;2022-12-18T14:37:07;14.53;;;13.00;;
5876;SDS011;2964;42.144;24.730;2022-12-18T14:39:37;18.37;;;13.70;;
5876;SDS011;2964;42.144;24.730;2022-12-18T14:42:05;15.20;;;13.60;;
5876;SDS011;2964;42.144;24.730;2022-12-18T14:44:32;16.53;;;14.27;;
5876;SDS011;2964;42.144;24.730;2022-12-18T14:46:58;16.37;;;14.57;;
5876;SDS011;2964;42.144;24.730;2022-12-18T14:49:26;18.43;;;14.47;;
5876;SDS011;2964;42.144;24.730;2022-12-18T14:51:57;15.97;;;14.27;;
5876;SDS011;2964;42.144;24.730;2022-12-18T14:54:35;16.77;;;13.53;;
5876;SDS011;2964;42.144;24.730;2022-12-18T14:57:05;17.37;;;14.43;;
5876;SDS011;2964;42.144;24.730;2022-12-18T14:59:39;17.07;;;13.80;;
5876;SDS011;2964;42.144;24.730;2022-12-18T15:02:09;19.10;;;14.30;;
5876;SDS011;2964;42.144;24.730;2022-12-18T15:04:44;18.27;;;14.57;;
5876;SDS011;2964;42.144;24.730;2022-12-18T15:07:13;17.47;;;15.20;;
5876;SDS011;2964;42.144;24.730;2022-12-18T15:12:39;15.27;;;13.53;;
5876;SDS011;2964;42.144;24.730;2022-12-18T15:18:10;21.33;;;15.20;;
5876;SDS011;2964;42.144;24.730;2022-12-18T15:20:42;15.83;;;13.73;;
5876;SDS011;2964;42.144;24.730;2022-12-18T15:23:18;16.00;;;14.23;;